createdAt,value
2022-12-17T00:00:33.106Z,91.80
2022-12-17T00:03:01.776Z,92.35
2022-12-17T00:05:28.776Z,92.73
2022-12-17T00:07:59.988Z,92.03
2022-12-17T00:10:27.010Z,90.77
2022-12-17T00:12:53.939Z,91.14
2022-12-17T00:15:24.211Z,90.69
2022-12-17T00:17:51.007Z,90.51
2022-12-17T00:20:18.697Z,90.25
2022-12-17T00:22:45.499Z,90.53
2022-12-17T00:25:12.295Z,90.81
2022-12-17T00:27:40.652Z,90.39
2022-12-17T00:30:08.691Z,90.35
2022-12-17T00:32:38.020Z,90.76
2022-12-17T00:35:05.219Z,90.12
2022-12-17T00:37:32.143Z,89.63
2022-12-17T00:40:00.911Z,89.27
2022-12-17T00:43:10.679Z,88.76
2022-12-17T00:45:39.088Z,89.74
2022-12-17T00:48:05.811Z,88.58
2022-12-17T00:50:37.687Z,88.66
2022-12-17T00:53:05.053Z,88.95
2022-12-17T00:55:31.914Z,89.17
2022-12-17T00:58:03.511Z,89.31
2022-12-17T01:00:31.178Z,88.76
2022-12-17T01:03:12.743Z,89.35
2022-12-17T01:05:40.054Z,88.86
2022-12-17T01:08:10.811Z,89.48
2022-12-17T01:10:37.785Z,88.67
2022-12-17T01:13:04.545Z,89.21
2022-12-17T01:15:33.987Z,89.47
2022-12-17T01:18:00.776Z,89.37
2022-12-17T01:20:30.921Z,88.43
2022-12-17T01:22:58.683Z,89.01
2022-12-17T01:25:27.112Z,88.84
2022-12-17T01:27:53.866Z,88.72
2022-12-17T01:30:26.544Z,89.00
2022-12-17T01:33:04.562Z,88.64
2022-12-17T01:35:33.644Z,88.37
2022-12-17T01:38:00.405Z,87.87
2022-12-17T01:40:27.243Z,88.60
2022-12-17T01:42:54.154Z,88.43
2022-12-17T01:45:26.696Z,87.52
2022-12-17T01:47:59.895Z,88.21
2022-12-17T01:50:31.773Z,88.86
2022-12-17T01:53:02.516Z,88.84
2022-12-17T01:55:30.253Z,88.52
2022-12-17T01:57:58.567Z,88.95
2022-12-17T02:00:29.087Z,87.70
2022-12-17T02:02:56.253Z,88.26
2022-12-17T02:05:42.555Z,87.72
2022-12-17T02:08:21.064Z,88.08
2022-12-17T02:11:34.579Z,87.50
2022-12-17T02:14:28.757Z,87.62
2022-12-17T02:17:02.584Z,87.11
2022-12-17T02:19:44.697Z,87.04
2022-12-17T02:28:31.567Z,86.45
2022-12-17T02:31:00.747Z,86.43
2022-12-17T02:33:28.349Z,85.50
2022-12-17T02:36:04.907Z,86.10
2022-12-17T02:41:32.570Z,85.45
2022-12-17T02:44:02.788Z,85.51
2022-12-17T02:46:29.825Z,85.53
2022-12-17T02:48:59.402Z,84.50
2022-12-17T02:51:31.407Z,84.77
2022-12-17T02:54:04.692Z,84.62
2022-12-17T02:56:33.602Z,84.41
2022-12-17T02:59:00.371Z,85.38
2022-12-17T03:01:29.721Z,85.25
2022-12-17T03:03:58.220Z,85.69
2022-12-17T03:06:25.104Z,85.46
2022-12-17T03:08:55.054Z,84.69
2022-12-17T03:11:22.019Z,84.65
2022-12-17T03:14:13.890Z,83.76
2022-12-17T03:16:40.884Z,84.64
2022-12-17T03:19:10.390Z,83.69
2022-12-17T03:21:38.647Z,84.61
2022-12-17T03:24:05.577Z,85.19
2022-12-17T03:26:32.585Z,85.51
2022-12-17T03:29:02.967Z,85.20
2022-12-17T03:31:30.166Z,85.26
2022-12-17T03:33:56.967Z,85.25
2022-12-17T03:39:15.533Z,85.33
2022-12-17T03:41:42.297Z,85.59
2022-12-17T03:44:09.156Z,85.61
2022-12-17T03:46:36.346Z,86.41
2022-12-17T03:49:04.016Z,86.52
2022-12-17T03:51:31.115Z,85.28
2022-12-17T03:53:57.975Z,85.89
2022-12-17T03:56:25.179Z,86.31
2022-12-17T03:58:51.975Z,86.04
2022-12-17T04:01:22.742Z,85.83
2022-12-17T04:03:49.878Z,86.30
2022-12-17T04:06:16.584Z,86.74
2022-12-17T04:08:44.804Z,86.58
2022-12-17T04:11:12.544Z,86.15
2022-12-17T04:13:41.240Z,86.12
2022-12-17T04:16:14.274Z,86.45
2022-12-17T04:19:06.756Z,86.32
2022-12-17T04:21:34.632Z,86.25
2022-12-17T04:24:01.329Z,86.48
2022-12-17T04:26:53.596Z,86.33
2022-12-17T04:29:28.830Z,87.19
2022-12-17T04:31:56.907Z,86.56
2022-12-17T04:34:24.170Z,86.64
2022-12-17T04:36:50.916Z,87.66
2022-12-17T04:39:17.840Z,87.19
2022-12-17T04:41:44.570Z,87.22
2022-12-17T04:44:12.189Z,87.30
2022-12-17T04:46:42.749Z,87.41
2022-12-17T04:49:13.061Z,86.90
2022-12-17T04:51:39.763Z,86.89
2022-12-17T04:54:10.720Z,87.96
2022-12-17T04:56:38.082Z,87.37
2022-12-17T04:59:07.146Z,87.48
2022-12-17T05:01:34.013Z,87.19
2022-12-17T05:04:02.482Z,86.74
2022-12-17T05:06:31.186Z,87.78
2022-12-17T05:08:59.184Z,87.06
2022-12-17T05:11:25.942Z,87.72
2022-12-17T05:13:53.143Z,87.37
2022-12-17T05:16:19.939Z,87.99
2022-12-17T05:18:46.735Z,87.77
2022-12-17T05:21:17.697Z,88.30
2022-12-17T05:23:44.514Z,87.64
2022-12-17T05:26:27.694Z,88.30
2022-12-17T05:28:54.488Z,88.51
2022-12-17T05:31:21.225Z,88.43
2022-12-17T05:33:48.666Z,87.43
2022-12-17T05:36:15.467Z,87.64
2022-12-17T05:38:42.317Z,87.68
2022-12-17T05:44:00.657Z,88.12
2022-12-17T05:46:28.085Z,88.22
2022-12-17T05:48:56.087Z,88.21
2022-12-17T05:51:24.737Z,88.24
2022-12-17T05:53:52.201Z,88.95
2022-12-17T05:56:19.079Z,88.42
2022-12-17T05:58:48.838Z,89.21
2022-12-17T06:01:18.171Z,88.19
2022-12-17T06:03:45.394Z,88.75
2022-12-17T06:06:14.618Z,87.74
2022-12-17T06:08:41.584Z,88.48
2022-12-17T06:11:11.746Z,87.59
2022-12-17T06:14:04.104Z,88.10
2022-12-17T06:19:23.243Z,87.65
2022-12-17T06:21:50.005Z,88.12
2022-12-17T06:24:16.862Z,88.01
2022-12-17T06:32:51.038Z,87.07
2022-12-17T06:35:18.986Z,87.27
2022-12-17T06:37:58.676Z,87.54
2022-12-17T06:40:26.331Z,87.63
2022-12-17T06:42:56.847Z,87.98
2022-12-17T06:45:52.674Z,86.97
2022-12-17T06:48:19.511Z,87.48
2022-12-17T06:50:49.697Z,86.59
2022-12-17T06:53:18.099Z,87.34
2022-12-17T06:55:44.819Z,87.45
2022-12-17T06:58:15.249Z,87.86
2022-12-17T07:00:42.023Z,86.95
2022-12-17T07:03:14.791Z,86.97
2022-12-17T07:08:36.721Z,87.93
2022-12-17T07:11:03.530Z,87.32
2022-12-17T07:13:30.293Z,87.39
2022-12-17T07:16:00.776Z,86.86
2022-12-17T07:18:28.191Z,86.31
2022-12-17T07:20:54.892Z,86.18
2022-12-17T07:26:39.671Z,86.83
2022-12-17T07:29:06.430Z,86.25
2022-12-17T07:37:20.506Z,88.33
2022-12-17T07:40:12.598Z,86.12
2022-12-17T07:42:42.099Z,85.88
2022-12-17T07:45:09.316Z,85.82
2022-12-17T07:47:36.136Z,85.33
2022-12-17T07:50:04.862Z,85.17
2022-12-17T07:52:33.190Z,85.41
2022-12-17T07:54:59.917Z,84.59
2022-12-17T07:57:30.350Z,85.21
2022-12-17T07:59:57.059Z,85.71
2022-12-17T08:02:24.481Z,85.12
2022-12-17T08:04:51.659Z,84.72
2022-12-17T08:07:18.891Z,85.15
2022-12-17T08:09:45.607Z,85.09
2022-12-17T08:12:13.259Z,84.82
2022-12-17T08:14:39.968Z,85.31
2022-12-17T08:17:32.749Z,84.59
2022-12-17T08:20:00.202Z,84.68
2022-12-17T08:22:26.958Z,83.80
2022-12-17T08:24:58.682Z,84.70
2022-12-17T08:27:25.653Z,84.37
2022-12-17T08:29:57.722Z,85.13
2022-12-17T08:32:25.473Z,85.18
2022-12-17T08:34:52.210Z,85.24
2022-12-17T08:37:20.085Z,85.83
2022-12-17T08:39:46.803Z,85.88
2022-12-17T08:42:39.270Z,85.48
2022-12-17T08:45:06.644Z,85.96
2022-12-17T08:47:33.344Z,85.78
2022-12-17T08:50:02.740Z,85.92
2022-12-17T08:52:29.479Z,86.06
2022-12-17T08:54:57.796Z,86.17
2022-12-17T08:57:31.390Z,86.71
2022-12-17T09:03:16.770Z,87.26
2022-12-17T09:05:44.236Z,87.50
2022-12-17T09:08:11.374Z,86.78
2022-12-17T09:10:38.077Z,86.97
2022-12-17T09:13:05.606Z,87.13
2022-12-17T09:15:35.706Z,86.30
2022-12-17T09:18:02.436Z,86.06
2022-12-17T09:20:30.318Z,86.09
2022-12-17T09:22:59.126Z,87.21
2022-12-17T09:25:27.330Z,86.64
2022-12-17T09:27:54.108Z,87.47
2022-12-17T09:30:21.827Z,87.09
2022-12-17T09:32:48.550Z,87.20
2022-12-17T09:35:43.802Z,86.57
2022-12-17T09:38:12.924Z,86.45
2022-12-17T09:40:41.468Z,86.56
2022-12-17T09:43:35.425Z,86.48
2022-12-17T09:46:12.745Z,86.16
2022-12-17T09:49:03.803Z,86.40
2022-12-17T09:51:34.224Z,84.92
2022-12-17T09:54:01.111Z,85.51
2022-12-17T09:59:46.996Z,84.65
2022-12-17T10:02:20.736Z,85.53
2022-12-17T10:07:41.321Z,85.71
2022-12-17T10:10:17.625Z,84.83
2022-12-17T10:12:44.915Z,85.41
2022-12-17T10:15:15.282Z,85.28
2022-12-17T10:18:12.735Z,85.13
2022-12-17T10:20:47.877Z,84.65
2022-12-17T10:23:32.587Z,84.23
2022-12-17T10:25:59.419Z,84.80
2022-12-17T10:28:26.280Z,84.30
2022-12-17T10:30:56.848Z,85.30
2022-12-17T10:33:25.246Z,84.67
2022-12-17T10:35:52.600Z,84.98
2022-12-17T10:38:21.999Z,86.09
2022-12-17T10:40:48.689Z,86.25
2022-12-17T10:43:35.999Z,85.75
2022-12-17T10:46:03.452Z,86.92
2022-12-17T10:48:31.220Z,86.44
2022-12-17T10:50:58.441Z,87.30
2022-12-17T10:53:26.319Z,87.08
2022-12-17T10:55:56.854Z,86.66
2022-12-17T10:58:31.094Z,88.07
2022-12-17T11:01:03.384Z,88.07
2022-12-17T11:03:49.077Z,87.87
2022-12-17T11:06:23.554Z,87.63
2022-12-17T11:08:51.827Z,87.33
2022-12-17T11:11:19.293Z,87.54
2022-12-17T11:13:50.283Z,88.45
2022-12-17T11:16:24.251Z,87.82
2022-12-17T11:19:04.795Z,88.40
2022-12-17T11:21:36.557Z,88.20
2022-12-17T11:27:02.892Z,88.71
2022-12-17T11:29:30.478Z,87.82
2022-12-17T11:32:07.829Z,88.61
2022-12-17T11:35:22.885Z,88.50
2022-12-17T11:38:22.777Z,87.67
2022-12-17T11:41:00.028Z,88.25
2022-12-17T11:43:40.188Z,87.76
2022-12-17T11:46:07.268Z,87.70
2022-12-17T11:48:57.208Z,88.75
2022-12-17T11:51:47.724Z,88.42
2022-12-17T11:54:41.844Z,89.03
2022-12-17T11:57:50.928Z,89.14
2022-12-17T12:00:21.194Z,88.62
2022-12-17T12:03:06.196Z,89.23
2022-12-17T12:05:33.832Z,89.70
2022-12-17T12:08:27.457Z,89.24
2022-12-17T12:11:16.337Z,88.21
2022-12-17T12:14:04.430Z,89.16
2022-12-17T12:26:58.996Z,89.41
2022-12-17T12:29:42.288Z,89.16
2022-12-17T12:32:51.800Z,89.35
2022-12-17T12:35:24.041Z,89.78
2022-12-17T12:37:51.329Z,89.67
2022-12-17T12:41:02.501Z,89.20
2022-12-17T12:43:59.819Z,89.43
2022-12-17T12:46:50.239Z,88.64
2022-12-17T12:49:37.990Z,88.40
2022-12-17T12:52:05.321Z,88.72
2022-12-17T12:54:47.543Z,88.61
2022-12-17T12:57:34.481Z,89.11
2022-12-17T13:00:01.939Z,89.10
2022-12-17T13:02:31.565Z,88.36
2022-12-17T13:05:01.125Z,88.93
2022-12-17T13:07:31.825Z,88.76
2022-12-17T13:10:31.595Z,88.13
2022-12-17T13:16:36.818Z,88.36
2022-12-17T13:19:36.255Z,88.14
2022-12-17T13:22:11.926Z,87.79
2022-12-17T13:24:39.345Z,88.22
2022-12-17T13:27:35.847Z,87.80
2022-12-17T13:30:37.748Z,86.83
2022-12-17T13:33:30.631Z,87.09
2022-12-17T13:36:22.429Z,87.16
2022-12-17T13:39:34.865Z,86.71
2022-12-17T13:42:02.518Z,86.18
2022-12-17T13:44:39.920Z,85.86
2022-12-17T13:47:20.549Z,85.19
2022-12-17T13:50:32.218Z,84.90
2022-12-17T13:52:43.741Z,86.10
2022-12-17T13:58:40.445Z,86.10
2022-12-17T14:01:15.295Z,86.21
2022-12-17T14:04:06.434Z,86.27
2022-12-17T14:06:38.462Z,85.72
2022-12-17T14:09:06.234Z,85.87
2022-12-17T14:11:33.655Z,85.90
2022-12-17T14:14:01.499Z,86.12
2022-12-17T14:16:29.167Z,86.75
2022-12-17T14:18:58.015Z,86.66
2022-12-17T14:21:28.441Z,86.36
2022-12-17T14:23:56.904Z,86.27
2022-12-17T14:26:23.948Z,86.07
2022-12-17T14:28:55.034Z,85.91
2022-12-17T14:31:29.038Z,86.06
2022-12-17T14:34:15.546Z,86.30
2022-12-17T14:36:45.813Z,85.75
2022-12-17T14:39:45.481Z,85.87
2022-12-17T14:42:37.812Z,85.85
2022-12-17T14:45:30.123Z,86.43
2022-12-17T14:48:03.853Z,85.15
2022-12-17T14:50:36.976Z,85.88
2022-12-17T14:53:28.018Z,85.89
2022-12-17T14:55:58.914Z,86.60
2022-12-17T14:58:26.966Z,85.46
2022-12-17T15:04:01.122Z,85.72
2022-12-17T15:06:29.313Z,85.60
2022-12-17T15:08:56.149Z,85.92
2022-12-17T15:11:24.970Z,85.11
2022-12-17T15:13:56.402Z,84.94
2022-12-17T15:16:23.924Z,85.41
2022-12-17T15:18:50.823Z,85.76
2022-12-17T15:21:19.888Z,85.50
2022-12-17T15:23:48.113Z,85.44
2022-12-17T15:26:23.077Z,85.04
2022-12-17T15:28:50.025Z,85.24
2022-12-17T15:31:20.600Z,86.10
2022-12-17T15:34:16.472Z,84.60
2022-12-17T15:36:43.355Z,84.67
2022-12-17T15:39:36.037Z,85.49
2022-12-17T15:42:03.154Z,85.54
2022-12-17T15:44:29.916Z,86.00
2022-12-17T15:46:58.558Z,85.81
2022-12-17T15:49:25.386Z,85.34
2022-12-17T15:51:52.552Z,85.22
2022-12-17T15:54:19.799Z,85.61
2022-12-17T15:56:53.304Z,85.65
2022-12-17T15:59:23.005Z,86.55
2022-12-17T16:01:50.197Z,86.34
2022-12-17T16:04:23.207Z,86.87
2022-12-17T16:06:54.067Z,86.45
2022-12-17T16:09:20.811Z,86.54
2022-12-17T16:11:48.556Z,86.30
2022-12-17T16:14:16.052Z,86.74
2022-12-17T16:16:43.156Z,86.09
2022-12-17T16:19:10.094Z,86.24
2022-12-17T16:21:42.032Z,86.04
2022-12-17T16:24:12.503Z,86.24
2022-12-17T16:26:40.409Z,86.27
2022-12-17T16:29:08.679Z,85.62
2022-12-17T16:31:35.983Z,85.83
2022-12-17T16:34:03.461Z,86.40
2022-12-17T16:36:30.469Z,86.49
2022-12-17T16:38:57.906Z,85.83
2022-12-17T16:41:24.777Z,85.67
2022-12-17T16:43:52.504Z,84.46
2022-12-17T16:46:32.146Z,85.03
2022-12-17T16:49:06.028Z,84.23
2022-12-17T16:51:36.963Z,83.80
2022-12-17T16:54:07.230Z,83.85
2022-12-17T16:56:40.261Z,83.44
2022-12-17T16:59:10.440Z,83.45
2022-12-17T17:01:40.030Z,83.23
2022-12-17T17:04:09.337Z,82.96
2022-12-17T17:06:47.956Z,83.01
2022-12-17T17:09:15.741Z,82.84
2022-12-17T17:11:48.162Z,83.00
2022-12-17T17:14:18.730Z,82.91
2022-12-17T17:16:45.644Z,82.81
2022-12-17T17:19:15.083Z,82.76
2022-12-17T17:21:47.949Z,82.89
2022-12-17T17:24:20.740Z,82.61
2022-12-17T17:26:50.188Z,82.88
2022-12-17T17:29:17.173Z,83.28
2022-12-17T17:34:31.763Z,82.88
2022-12-17T17:36:58.484Z,82.91
2022-12-17T17:39:26.384Z,82.60
2022-12-17T17:41:54.026Z,82.38
2022-12-17T17:44:21.470Z,82.01
2022-12-17T17:46:48.407Z,82.53
2022-12-17T17:49:15.633Z,83.00
2022-12-17T17:54:32.242Z,82.84
2022-12-17T17:57:00.029Z,83.10
2022-12-17T17:59:33.254Z,82.36
2022-12-17T18:02:02.312Z,81.50
2022-12-17T18:04:30.068Z,81.22
2022-12-17T18:09:45.904Z,81.00
2022-12-17T18:12:12.687Z,81.47
2022-12-17T18:14:46.804Z,80.86
2022-12-17T18:17:25.302Z,80.68
2022-12-17T18:19:52.119Z,81.08
2022-12-17T18:22:19.312Z,80.43
2022-12-17T18:24:46.786Z,79.86
2022-12-17T18:27:15.529Z,79.97
2022-12-17T18:29:42.330Z,81.01
2022-12-17T18:32:09.650Z,80.69
2022-12-17T18:34:36.768Z,80.69
2022-12-17T18:37:03.710Z,79.37
2022-12-17T18:39:30.611Z,80.36
2022-12-17T18:41:59.495Z,79.08
2022-12-17T18:44:26.933Z,79.46
2022-12-17T18:46:54.651Z,79.11
2022-12-17T18:49:23.349Z,80.13
2022-12-17T18:51:52.267Z,79.40
2022-12-17T18:54:22.330Z,79.85
2022-12-17T18:57:00.848Z,79.78
2022-12-17T18:59:30.943Z,80.00
2022-12-17T19:01:58.935Z,79.58
2022-12-17T19:04:27.164Z,79.59
2022-12-17T19:06:55.014Z,79.69
2022-12-17T19:09:28.559Z,80.02
2022-12-17T19:11:57.988Z,79.95
2022-12-17T19:14:26.485Z,79.84
2022-12-17T19:16:55.210Z,80.29
2022-12-17T19:19:22.921Z,80.22
2022-12-17T19:21:51.133Z,80.05
2022-12-17T19:24:19.979Z,79.57
2022-12-17T19:26:47.191Z,79.39
2022-12-17T19:29:16.688Z,80.04
2022-12-17T19:31:44.231Z,79.65
2022-12-17T19:34:16.363Z,80.57
2022-12-17T19:36:45.172Z,80.57
2022-12-17T19:39:17.593Z,79.77
2022-12-17T19:41:45.260Z,80.32
2022-12-17T19:44:14.381Z,80.72
2022-12-17T19:46:42.414Z,80.63
2022-12-17T19:49:12.388Z,80.21
2022-12-17T19:51:44.883Z,80.40
2022-12-17T19:54:14.632Z,80.50
2022-12-17T19:56:44.146Z,80.86
2022-12-17T19:59:12.736Z,80.30
2022-12-17T20:01:44.177Z,80.84
2022-12-17T20:04:16.896Z,80.53
2022-12-17T20:06:45.323Z,80.85
2022-12-17T20:09:14.880Z,80.90
2022-12-17T20:11:42.229Z,81.29
2022-12-17T20:14:16.579Z,80.95
2022-12-17T20:16:55.531Z,81.79
2022-12-17T20:19:28.860Z,82.07
2022-12-17T20:21:55.782Z,81.36
2022-12-17T20:24:30.706Z,81.54
2022-12-17T20:26:58.552Z,82.04
2022-12-17T20:29:26.571Z,81.69
2022-12-17T20:31:54.895Z,81.54
2022-12-17T20:34:22.623Z,80.69
2022-12-17T20:36:51.325Z,80.82
2022-12-17T20:39:25.973Z,81.27
2022-12-17T20:41:55.517Z,81.06
2022-12-17T20:44:22.596Z,81.07
2022-12-17T20:46:49.857Z,81.29
2022-12-17T20:49:17.451Z,81.45
2022-12-17T20:51:44.419Z,81.60
2022-12-17T20:54:12.176Z,81.11
2022-12-17T20:56:40.761Z,80.76
2022-12-17T20:59:13.398Z,81.36
2022-12-17T21:01:43.172Z,80.45
2022-12-17T21:04:13.744Z,81.11
2022-12-17T21:06:43.318Z,80.12
2022-12-17T21:09:11.525Z,80.61
2022-12-17T21:11:41.616Z,80.98
2022-12-17T21:14:12.372Z,80.64
2022-12-17T21:16:40.159Z,80.50
2022-12-17T21:19:09.133Z,80.62
2022-12-17T21:21:37.969Z,80.51
2022-12-17T21:24:06.677Z,80.42
2022-12-17T21:26:39.098Z,81.31
2022-12-17T21:29:08.268Z,80.81
2022-12-17T21:31:36.765Z,81.47
2022-12-17T21:34:05.392Z,81.06
2022-12-17T21:36:34.318Z,81.01
2022-12-17T21:39:02.236Z,80.71
2022-12-17T21:41:38.415Z,80.57
2022-12-17T21:44:09.094Z,80.83
2022-12-17T21:46:36.058Z,81.18
2022-12-17T21:49:04.240Z,81.10
2022-12-17T21:51:32.670Z,80.40
2022-12-17T21:54:02.398Z,80.60
2022-12-17T21:56:35.266Z,80.04
2022-12-17T21:59:02.020Z,79.63
2022-12-17T22:01:32.030Z,79.94
2022-12-17T22:04:02.290Z,80.73
2022-12-17T22:06:32.659Z,80.71
2022-12-17T22:09:09.458Z,80.56
2022-12-17T22:11:46.665Z,81.28
2022-12-17T22:14:20.448Z,81.77
2022-12-17T22:16:48.798Z,80.94
2022-12-17T22:19:17.422Z,80.69
2022-12-17T22:21:46.937Z,80.54
2022-12-17T22:24:20.530Z,81.10
2022-12-17T22:26:47.905Z,81.38
2022-12-17T22:29:15.494Z,80.72
2022-12-17T22:31:42.332Z,80.74
2022-12-17T22:34:59.339Z,80.74
2022-12-17T22:40:16.901Z,81.03
2022-12-17T22:44:31.970Z,80.29
2022-12-17T22:44:35.708Z,80.59
2022-12-17T22:45:19.612Z,80.13
2022-12-17T22:47:46.980Z,79.82
2022-12-17T22:50:13.794Z,79.77
2022-12-17T22:52:41.148Z,79.66
2022-12-17T22:55:08.823Z,80.11
2022-12-17T22:57:38.435Z,80.22
2022-12-17T23:00:15.361Z,80.04
2022-12-17T23:02:42.200Z,80.13
2022-12-17T23:05:09.336Z,80.72
2022-12-17T23:07:36.166Z,80.64
2022-12-17T23:10:03.440Z,80.28
2022-12-17T23:12:30.307Z,79.88
2022-12-17T23:14:57.028Z,80.59
2022-12-17T23:17:23.821Z,80.33
2022-12-17T23:19:50.589Z,80.52
2022-12-17T23:22:21.938Z,80.38
2022-12-17T23:24:49.403Z,80.84
2022-12-17T23:27:16.296Z,80.83
2022-12-17T23:29:43.098Z,79.40
2022-12-17T23:32:09.857Z,79.51
2022-12-17T23:34:36.751Z,79.54
2022-12-17T23:37:03.809Z,79.40
2022-12-17T23:39:30.624Z,79.34
2022-12-17T23:41:57.537Z,79.60
2022-12-17T23:44:24.379Z,79.40
2022-12-17T23:46:51.225Z,80.07
2022-12-17T23:49:18.260Z,79.60
2022-12-17T23:51:45.030Z,79.60
2022-12-17T23:54:11.867Z,79.79
2022-12-17T23:56:38.690Z,80.04
2022-12-17T23:59:06.913Z,79.83
